Terminal Aerodrome Forecast
Issued by NWS Tampa Bay Area, FL

Home | Current Version | Previous Version | Text Only | Print | Product List | Glossary On
Versions: 1 2 3 4 5 6 7 8 9 10 11 12 13 14 15 16 17 18 19 20 21 22 23 24 25
697
FTUS42 KTBW 212334
TAFTPA
TAF
KTPA 212334Z 2200/2224 18010KT P6SM SCT250
     FM220600 18008KT 6SM BR SCT025 BKN080
     FM221200 18011G16KT P6SM VCTS FEW010CB BKN025
     FM221500 19015G21KT P6SM VCTS SCT010CB BKN025
     FM221800 22018G25KT P6SM TSRA SCT015CB OVC025=

USA.gov is the U.S. government's official web portal to all federal, state and local government web resources and services.